createdAt,value
2019-05-02T00:00:26.173Z,0.00
2019-05-02T00:01:26.142Z,0.00
2019-05-02T00:02:28.918Z,0.00
2019-05-02T00:03:26.123Z,0.00
2019-05-02T00:04:26.111Z,0.00
2019-05-02T00:05:27.447Z,0.00
2019-05-02T00:06:27.087Z,0.00
2019-05-02T00:07:26.076Z,0.00
2019-05-02T00:08:29.224Z,0.00
2019-05-02T00:09:27.052Z,0.00
2019-05-02T00:10:26.109Z,0.00
2019-05-02T00:11:26.035Z,0.00
2019-05-02T00:12:26.020Z,0.00
2019-05-02T00:13:26.008Z,0.00
2019-05-02T00:14:25.998Z,0.00
2019-05-02T00:15:26.005Z,0.00
2019-05-02T00:16:25.975Z,0.00
2019-05-02T00:17:27.452Z,0.00
2019-05-02T00:18:25.954Z,0.00
2019-05-02T00:19:25.942Z,0.00
2019-05-02T00:20:27.148Z,0.00
2019-05-02T00:21:25.919Z,0.00
2019-05-02T00:22:25.907Z,0.00
2019-05-02T00:23:28.020Z,0.00
2019-05-02T00:24:25.890Z,0.00
2019-05-02T00:25:25.877Z,0.00
2019-05-02T00:26:25.914Z,0.00
2019-05-02T00:27:25.853Z,0.00
2019-05-02T00:28:25.842Z,0.00
2019-05-02T00:29:25.828Z,0.00
2019-05-02T00:30:30.003Z,0.00
2019-05-02T00:31:26.827Z,0.00
2019-05-02T00:32:25.794Z,0.00
2019-05-02T00:33:29.230Z,0.00
2019-05-02T00:34:26.775Z,0.00
2019-05-02T00:35:25.764Z,0.00
2019-05-02T00:36:25.779Z,0.00
2019-05-02T00:37:26.692Z,0.00
2019-05-02T00:38:25.730Z,0.00
2019-05-02T00:39:25.718Z,0.00
2019-05-02T00:40:27.732Z,0.00
2019-05-02T00:41:25.697Z,0.00
2019-05-02T00:42:25.704Z,0.00
2019-05-02T00:43:29.077Z,0.00
2019-05-02T00:44:26.662Z,0.00
2019-05-02T00:45:25.989Z,0.00
2019-05-02T00:46:25.644Z,0.00
2019-05-02T00:47:25.649Z,0.00
2019-05-02T00:48:25.616Z,0.00
2019-05-02T00:49:26.355Z,0.00
2019-05-02T00:50:25.595Z,0.00
2019-05-02T00:51:26.757Z,0.00
2019-05-02T00:52:25.588Z,0.00
2019-05-02T00:53:25.562Z,0.00
2019-05-02T00:54:25.549Z,0.00
2019-05-02T00:55:28.830Z,0.00
2019-05-02T00:56:26.533Z,0.00
2019-05-02T00:57:25.551Z,0.00
2019-05-02T00:58:27.356Z,0.00
2019-05-02T00:59:26.496Z,0.00
2019-05-02T01:00:25.487Z,0.00
2019-05-02T01:01:29.444Z,0.00
2019-05-02T01:02:25.461Z,0.00
2019-05-02T01:03:25.466Z,0.00
2019-05-02T01:04:27.671Z,0.00
2019-05-02T01:05:25.427Z,0.00
2019-05-02T01:06:25.416Z,0.00
2019-05-02T01:07:26.802Z,0.00
2019-05-02T01:08:25.415Z,0.00
2019-05-02T01:09:25.384Z,0.00
2019-05-02T01:10:25.372Z,0.00
2019-05-02T01:11:28.254Z,0.00
2019-05-02T01:12:26.968Z,0.00
2019-05-02T01:13:25.367Z,0.00
2019-05-02T01:14:27.218Z,0.00
2019-05-02T01:15:26.340Z,0.00
2019-05-02T01:16:25.305Z,0.00
2019-05-02T01:17:26.046Z,0.00
2019-05-02T01:18:26.311Z,0.00
2019-05-02T01:19:25.272Z,0.00
2019-05-02T01:20:27.505Z,0.00
2019-05-02T01:21:25.248Z,0.00
2019-05-02T01:22:25.237Z,0.00
2019-05-02T01:23:27.555Z,0.00
2019-05-02T01:24:25.236Z,0.00
2019-05-02T01:25:25.204Z,0.00
2019-05-02T01:26:29.315Z,0.00
2019-05-02T01:27:26.180Z,0.00
2019-05-02T01:28:25.171Z,0.00
2019-05-02T01:29:29.761Z,0.00
2019-05-02T01:30:26.146Z,0.00
2019-05-02T01:31:25.135Z,0.00
2019-05-02T01:32:29.663Z,0.00
2019-05-02T01:33:26.114Z,0.00
2019-05-02T01:34:25.102Z,0.00
2019-05-02T01:35:27.010Z,0.00
2019-05-02T01:36:26.079Z,0.00
2019-05-02T01:37:25.069Z,0.00
2019-05-02T01:38:26.526Z,0.00
2019-05-02T01:39:26.053Z,0.00
2019-05-02T01:40:25.066Z,0.00
2019-05-02T01:41:29.209Z,0.00
2019-05-02T01:42:39.064Z,0.00
2019-05-02T01:43:26.002Z,0.00
2019-05-02T01:44:24.988Z,0.00
2019-05-02T01:45:24.980Z,0.00
2019-05-02T01:46:24.993Z,0.00
2019-05-02T01:47:29.174Z,0.00
2019-05-02T01:48:25.943Z,0.00
2019-05-02T01:49:24.930Z,0.00
2019-05-02T01:50:28.930Z,0.00
2019-05-02T01:51:25.938Z,0.00
2019-05-02T01:52:25.085Z,0.00
2019-05-02T01:53:29.129Z,0.00
2019-05-02T01:54:25.873Z,0.00
2019-05-02T01:55:24.861Z,0.00
2019-05-02T01:56:28.568Z,0.00
2019-05-02T01:57:25.870Z,0.00
2019-05-02T01:58:24.828Z,0.00
2019-05-02T01:59:29.128Z,0.00
2019-05-02T02:00:25.807Z,0.00
2019-05-02T02:01:24.792Z,0.00
2019-05-02T02:02:28.120Z,0.00
2019-05-02T02:03:25.806Z,0.00
2019-05-02T02:04:24.758Z,0.00
2019-05-02T02:05:27.563Z,0.00
2019-05-02T02:06:25.739Z,0.00
2019-05-02T02:07:24.725Z,0.00
2019-05-02T02:08:27.404Z,0.00
2019-05-02T02:09:25.733Z,0.00
2019-05-02T02:10:24.692Z,0.00
2019-05-02T02:11:28.445Z,0.00
2019-05-02T02:12:25.670Z,0.00
2019-05-02T02:13:24.658Z,0.00
2019-05-02T02:14:24.646Z,0.00
2019-05-02T02:15:25.136Z,0.00
2019-05-02T02:16:24.622Z,0.00
2019-05-02T02:17:24.610Z,0.00
2019-05-02T02:18:27.508Z,0.00
2019-05-02T02:19:24.593Z,0.00
2019-05-02T02:20:24.579Z,0.00
2019-05-02T02:21:25.774Z,0.00
2019-05-02T02:22:24.558Z,0.00
2019-05-02T02:23:24.542Z,0.00
2019-05-02T02:24:25.275Z,0.00
2019-05-02T02:25:24.522Z,0.00
2019-05-02T02:26:24.509Z,0.00
2019-05-02T02:27:25.725Z,0.00
2019-05-02T02:28:24.487Z,0.00
2019-05-02T02:29:24.474Z,0.00
2019-05-02T02:30:26.573Z,0.00
2019-05-02T02:31:24.453Z,0.00
2019-05-02T02:32:27.109Z,0.00
2019-05-02T02:33:24.458Z,0.00
2019-05-02T02:34:29.037Z,0.00
2019-05-02T02:35:25.411Z,0.00
2019-05-02T02:36:31.160Z,0.00
2019-05-02T02:37:25.387Z,0.00
2019-05-02T02:38:26.729Z,0.00
2019-05-02T02:39:25.394Z,0.00
2019-05-02T02:40:32.580Z,0.00
2019-05-02T02:41:25.338Z,0.00
2019-05-02T02:42:25.169Z,0.00
2019-05-02T02:43:34.417Z,0.00
2019-05-02T02:44:25.304Z,0.00
2019-05-02T02:45:24.331Z,0.00
2019-05-02T02:46:24.288Z,0.00
2019-05-02T02:47:24.274Z,0.00
2019-05-02T02:48:24.261Z,0.00
2019-05-02T02:49:24.782Z,0.00
2019-05-02T02:50:24.243Z,0.00
2019-05-02T02:51:26.254Z,0.00
2019-05-02T02:52:24.216Z,0.00
2019-05-02T02:53:25.727Z,0.00
2019-05-02T02:54:24.199Z,0.00
2019-05-02T02:55:24.548Z,0.00
2019-05-02T02:56:24.171Z,0.00
2019-05-02T02:57:28.197Z,0.00
2019-05-02T02:58:24.147Z,0.00
2019-05-02T02:59:26.257Z,0.00
2019-05-02T03:00:24.127Z,0.00
2019-05-02T03:01:29.021Z,0.00
2019-05-02T03:02:25.139Z,0.00
2019-05-02T03:03:28.100Z,0.00
2019-05-02T03:04:25.086Z,0.00
2019-05-02T03:05:26.321Z,0.00
2019-05-02T03:06:24.061Z,0.00
2019-05-02T03:07:25.908Z,0.00
2019-05-02T03:08:24.063Z,0.00
2019-05-02T03:09:26.763Z,0.00
2019-05-02T03:10:24.015Z,0.00
2019-05-02T03:11:25.546Z,0.00
2019-05-02T03:12:23.992Z,0.00
2019-05-02T03:13:24.309Z,0.00
2019-05-02T03:14:23.999Z,0.00
2019-05-02T03:15:27.832Z,0.00
2019-05-02T03:16:24.947Z,0.00
2019-05-02T03:17:26.183Z,0.00
2019-05-02T03:18:27.000Z,0.00
2019-05-02T03:19:23.926Z,0.00
2019-05-02T03:20:23.950Z,0.00
2019-05-02T03:21:23.895Z,0.00
2019-05-02T03:22:23.885Z,0.00
2019-05-02T03:23:24.142Z,0.00
2019-05-02T03:24:23.856Z,0.00
2019-05-02T03:25:25.104Z,0.00
2019-05-02T03:26:24.896Z,0.00
2019-05-02T03:27:29.873Z,0.00
2019-05-02T03:28:24.819Z,0.00
2019-05-02T03:29:23.809Z,0.00
2019-05-02T03:30:31.500Z,0.00
2019-05-02T03:31:29.565Z,0.00
2019-05-02T03:32:33.520Z,0.00
2019-05-02T03:33:24.760Z,0.00
2019-05-02T03:34:23.753Z,0.00
2019-05-02T03:35:40.215Z,0.00
2019-05-02T03:36:34.330Z,0.00
2019-05-02T03:37:24.711Z,0.00
2019-05-02T03:38:31.536Z,0.00
2019-05-02T03:39:24.691Z,0.00
2019-05-02T03:40:23.687Z,0.00
2019-05-02T03:41:23.916Z,0.00
2019-05-02T03:42:23.661Z,0.00
2019-05-02T03:43:25.540Z,0.00
2019-05-02T03:44:26.238Z,0.00
2019-05-02T03:45:23.624Z,0.00
2019-05-02T03:46:23.615Z,0.00
2019-05-02T03:47:23.601Z,0.00
2019-05-02T03:48:25.654Z,0.00
2019-05-02T03:49:23.582Z,0.00
2019-05-02T03:50:30.732Z,0.00
2019-05-02T03:51:25.384Z,0.00
2019-05-02T03:52:23.545Z,0.00
2019-05-02T03:53:25.362Z,0.00
2019-05-02T03:54:23.522Z,0.00
2019-05-02T03:55:30.305Z,5.62
2019-05-02T03:56:24.536Z,5.62
2019-05-02T03:57:31.667Z,5.62
2019-05-02T03:58:24.481Z,5.62
2019-05-02T03:59:23.468Z,5.62
2019-05-02T04:00:24.372Z,5.62
2019-05-02T04:01:23.448Z,5.62
2019-05-02T04:02:23.471Z,5.62
2019-05-02T04:03:23.422Z,5.62
2019-05-02T04:04:23.412Z,5.62
2019-05-02T04:05:23.401Z,5.62
2019-05-02T04:06:23.880Z,5.62
2019-05-02T04:07:23.378Z,11.25
2019-05-02T04:08:23.396Z,11.25
2019-05-02T04:09:23.352Z,11.25
2019-05-02T04:10:23.342Z,11.25
2019-05-02T04:11:23.336Z,11.25
2019-05-02T04:12:23.322Z,11.25
2019-05-02T04:13:23.310Z,11.25
2019-05-02T04:14:36.809Z,11.25
2019-05-02T04:15:28.824Z,11.25
2019-05-02T04:16:24.289Z,16.88
2019-05-02T04:17:28.802Z,16.88
2019-05-02T04:18:24.253Z,16.88
2019-05-02T04:19:28.550Z,16.88
2019-05-02T04:20:24.263Z,16.88
2019-05-02T04:21:26.049Z,16.88
2019-05-02T04:22:23.212Z,16.88
2019-05-02T04:23:27.516Z,16.88
2019-05-02T04:24:24.189Z,22.50
2019-05-02T04:25:27.785Z,22.50
2019-05-02T04:26:24.191Z,22.50
2019-05-02T04:27:31.420Z,22.50
2019-05-02T04:28:24.138Z,22.50
2019-05-02T04:29:24.509Z,22.50
2019-05-02T04:30:24.118Z,28.12
2019-05-02T04:31:24.858Z,28.12
2019-05-02T04:32:24.134Z,28.12
2019-05-02T04:33:29.019Z,28.12
2019-05-02T04:34:24.074Z,33.75
2019-05-02T04:35:28.828Z,33.75
2019-05-02T04:36:24.053Z,33.75
2019-05-02T04:37:23.041Z,33.75
2019-05-02T04:38:31.752Z,33.75
2019-05-02T04:39:24.021Z,39.38
2019-05-02T04:40:23.006Z,39.38
2019-05-02T04:41:28.611Z,39.38
2019-05-02T04:42:23.990Z,39.38
2019-05-02T04:43:22.972Z,39.38
2019-05-02T04:44:29.795Z,45.00
2019-05-02T04:45:29.238Z,45.00
2019-05-02T04:46:28.116Z,45.00
2019-05-02T04:47:23.934Z,50.62
2019-05-02T04:48:22.915Z,50.62
2019-05-02T04:49:32.694Z,50.62
2019-05-02T04:50:25.221Z,56.25
2019-05-02T04:51:22.883Z,56.25
2019-05-02T04:52:22.881Z,56.25
2019-05-02T04:53:25.937Z,56.25
2019-05-02T04:54:31.317Z,56.25
2019-05-02T04:55:30.306Z,61.88
2019-05-02T04:56:23.854Z,61.88
2019-05-02T04:57:29.813Z,61.88
2019-05-02T04:58:27.715Z,61.88
2019-05-02T04:59:23.795Z,61.88
2019-05-02T05:00:22.780Z,61.88
2019-05-02T05:01:22.768Z,67.50
2019-05-02T05:02:30.907Z,67.50
2019-05-02T05:03:23.746Z,73.12
2019-05-02T05:04:22.734Z,73.12
2019-05-02T05:05:25.566Z,73.12
2019-05-02T05:06:22.713Z,73.12
2019-05-02T05:07:22.707Z,73.12
2019-05-02T05:08:26.355Z,73.12
2019-05-02T05:09:23.678Z,78.75
2019-05-02T05:10:22.668Z,78.75
2019-05-02T05:11:24.976Z,78.75
2019-05-02T05:12:22.645Z,84.38
2019-05-02T05:13:23.328Z,84.38
2019-05-02T05:14:22.664Z,84.38
2019-05-02T05:15:35.498Z,90.00
2019-05-02T05:16:23.603Z,95.62
2019-05-02T05:17:24.978Z,95.62
2019-05-02T05:18:23.578Z,95.62
2019-05-02T05:19:23.028Z,95.62
2019-05-02T05:20:23.585Z,95.62
2019-05-02T05:21:24.636Z,101.25
2019-05-02T05:22:22.534Z,101.25
2019-05-02T05:23:22.521Z,101.25
2019-05-02T05:24:24.883Z,101.25
2019-05-02T05:25:22.500Z,95.62
2019-05-02T05:26:22.516Z,90.00
2019-05-02T05:27:22.983Z,90.00
2019-05-02T05:28:22.467Z,101.25
2019-05-02T05:29:23.417Z,112.50
2019-05-02T05:30:22.446Z,95.62
2019-05-02T05:31:23.979Z,84.38
2019-05-02T05:32:22.502Z,90.00
2019-05-02T05:33:22.419Z,84.38
2019-05-02T05:34:22.813Z,84.38
2019-05-02T05:35:23.420Z,106.88
2019-05-02T05:36:28.878Z,84.38
2019-05-02T05:37:23.397Z,84.38
2019-05-02T05:38:23.052Z,90.00
2019-05-02T05:39:23.343Z,90.00
2019-05-02T05:40:27.133Z,95.62
2019-05-02T05:41:23.364Z,95.62
2019-05-02T05:42:23.158Z,135.00
2019-05-02T05:43:23.326Z,123.75
2019-05-02T05:44:23.350Z,106.88
2019-05-02T05:45:23.276Z,123.75
2019-05-02T05:46:22.275Z,151.88
2019-05-02T05:47:22.257Z,157.50
2019-05-02T05:48:22.251Z,140.62
2019-05-02T05:49:22.261Z,118.12
2019-05-02T05:50:22.221Z,140.62
2019-05-02T05:51:22.208Z,140.62
2019-05-02T05:52:22.197Z,146.25
2019-05-02T05:53:24.364Z,123.75
2019-05-02T05:54:22.176Z,135.00
2019-05-02T05:55:24.448Z,146.25
2019-05-02T05:56:22.155Z,163.12
2019-05-02T05:57:22.141Z,163.12
2019-05-02T05:58:22.146Z,123.75
2019-05-02T05:59:26.863Z,135.00
2019-05-02T06:00:23.434Z,151.88
2019-05-02T06:01:25.942Z,129.38
2019-05-02T06:02:23.087Z,140.62
2019-05-02T06:03:22.071Z,174.38
2019-05-02T06:04:23.633Z,140.62
2019-05-02T06:05:22.052Z,101.25
2019-05-02T06:06:23.394Z,95.62
2019-05-02T06:07:22.027Z,95.62
2019-05-02T06:08:22.020Z,106.88
2019-05-02T06:09:26.226Z,106.88
2019-05-02T06:10:22.991Z,106.88
2019-05-02T06:11:21.981Z,112.50
2019-05-02T06:12:26.159Z,101.25
2019-05-02T06:13:22.959Z,90.00
2019-05-02T06:14:24.929Z,90.00
2019-05-02T06:15:21.935Z,95.62
2019-05-02T06:16:21.923Z,95.62
2019-05-02T06:17:23.084Z,101.25
2019-05-02T06:18:22.929Z,101.25
2019-05-02T06:19:21.889Z,112.50
2019-05-02T06:20:25.645Z,101.25
2019-05-02T06:21:22.865Z,84.38
2019-05-02T06:22:24.292Z,84.38
2019-05-02T06:23:21.843Z,95.62
2019-05-02T06:24:21.859Z,90.00
2019-05-02T06:25:32.404Z,90.00
2019-05-02T06:26:22.812Z,84.38
2019-05-02T06:27:26.005Z,84.38
2019-05-02T06:28:22.786Z,84.38
2019-05-02T06:29:21.774Z,84.38
2019-05-02T06:30:21.791Z,84.38
2019-05-02T06:31:21.756Z,84.38
2019-05-02T06:32:21.739Z,84.38
2019-05-02T06:33:25.821Z,84.38
2019-05-02T06:34:22.720Z,84.38
2019-05-02T06:35:22.471Z,78.75
2019-05-02T06:36:21.723Z,78.75
2019-05-02T06:37:21.681Z,78.75
2019-05-02T06:38:22.841Z,78.75
2019-05-02T06:39:21.659Z,78.75
2019-05-02T06:40:21.648Z,78.75
2019-05-02T06:41:22.318Z,78.75
2019-05-02T06:42:21.651Z,78.75
2019-05-02T06:43:21.616Z,78.75
2019-05-02T06:44:23.813Z,78.75
2019-05-02T06:45:21.591Z,73.12
2019-05-02T06:46:27.021Z,73.12
2019-05-02T06:47:22.597Z,73.12
2019-05-02T06:48:21.557Z,73.12
2019-05-02T06:49:24.316Z,78.75
2019-05-02T06:50:24.521Z,84.38
2019-05-02T06:51:21.522Z,84.38
2019-05-02T06:52:21.514Z,84.38
2019-05-02T06:53:21.528Z,95.62
2019-05-02T06:54:22.795Z,106.88
2019-05-02T06:55:21.480Z,95.62
2019-05-02T06:56:21.466Z,101.25
2019-05-02T06:57:24.151Z,106.88
2019-05-02T06:58:21.443Z,118.12
2019-05-02T06:59:21.459Z,140.62
2019-05-02T07:00:34.979Z,129.38
2019-05-02T07:01:22.961Z,112.50
2019-05-02T07:02:21.397Z,118.12
2019-05-02T07:03:21.386Z,123.75
2019-05-02T07:04:23.084Z,135.00
2019-05-02T07:05:21.389Z,135.00
2019-05-02T07:06:21.404Z,140.62
2019-05-02T07:07:25.216Z,140.62
2019-05-02T07:08:22.365Z,123.75
2019-05-02T07:09:21.754Z,123.75
2019-05-02T07:10:25.550Z,129.38
2019-05-02T07:11:22.321Z,112.50
2019-05-02T07:12:21.282Z,129.38
2019-05-02T07:13:21.272Z,129.38
2019-05-02T07:14:23.695Z,129.38
2019-05-02T07:15:21.341Z,118.12
2019-05-02T07:16:36.871Z,129.38
2019-05-02T07:17:26.479Z,140.62
2019-05-02T07:18:22.214Z,140.62
2019-05-02T07:19:21.905Z,135.00
2019-05-02T07:20:22.191Z,146.25
2019-05-02T07:21:23.578Z,140.62
2019-05-02T07:22:21.167Z,146.25
2019-05-02T07:23:21.187Z,168.75
2019-05-02T07:24:25.324Z,168.75
2019-05-02T07:25:22.134Z,151.88
2019-05-02T07:26:23.239Z,140.62
2019-05-02T07:27:21.112Z,146.25
2019-05-02T07:28:23.817Z,151.88
2019-05-02T07:29:21.899Z,151.88
2019-05-02T07:30:21.077Z,135.00
2019-05-02T07:31:21.069Z,135.00
2019-05-02T07:32:24.906Z,106.88
2019-05-02T07:33:22.049Z,90.00
2019-05-02T07:34:21.036Z,95.62
2019-05-02T07:35:24.412Z,118.12
2019-05-02T07:36:21.012Z,123.75
2019-05-02T07:37:21.000Z,118.12
2019-05-02T07:38:25.730Z,106.88
2019-05-02T07:39:21.976Z,129.38
2019-05-02T07:40:20.968Z,157.50
2019-05-02T07:41:24.081Z,191.25
2019-05-02T07:42:21.944Z,146.25
2019-05-02T07:43:22.295Z,106.88
2019-05-02T07:44:20.921Z,90.00
2019-05-02T07:45:20.909Z,101.25
2019-05-02T07:46:22.215Z,112.50
2019-05-02T07:47:20.920Z,106.88
2019-05-02T07:48:20.879Z,112.50
2019-05-02T07:49:21.011Z,112.50
2019-05-02T07:50:20.860Z,101.25
2019-05-02T07:51:21.350Z,106.88
2019-05-02T07:52:20.832Z,129.38
2019-05-02T07:53:20.849Z,118.12
2019-05-02T07:54:24.869Z,151.88
2019-05-02T07:55:21.800Z,225.00
2019-05-02T07:56:20.788Z,230.62
2019-05-02T07:57:25.193Z,123.75
2019-05-02T07:58:21.794Z,118.12
2019-05-02T07:59:23.480Z,118.12
2019-05-02T08:00:20.742Z,118.12
2019-05-02T08:01:20.736Z,123.75
2019-05-02T08:02:25.182Z,151.88
2019-05-02T08:03:21.710Z,191.25
2019-05-02T08:04:20.724Z,202.50
2019-05-02T08:05:22.242Z,185.62
2019-05-02T08:06:34.038Z,185.62
2019-05-02T08:07:22.568Z,168.75
2019-05-02T08:08:20.656Z,174.38
2019-05-02T08:09:20.640Z,180.00
2019-05-02T08:10:22.229Z,185.62
2019-05-02T08:11:20.620Z,185.62
2019-05-02T08:12:20.610Z,185.62
2019-05-02T08:13:20.596Z,191.25
2019-05-02T08:14:20.585Z,185.62
2019-05-02T08:15:20.575Z,185.62
2019-05-02T08:16:22.312Z,168.75
2019-05-02T08:17:21.551Z,151.88
2019-05-02T08:18:20.545Z,129.38
2019-05-02T08:19:23.461Z,112.50
2019-05-02T08:20:21.278Z,101.25
2019-05-02T08:21:20.507Z,106.88
2019-05-02T08:22:20.527Z,106.88
2019-05-02T08:23:25.697Z,112.50
2019-05-02T08:24:21.475Z,129.38
2019-05-02T08:25:20.477Z,123.75
2019-05-02T08:26:21.763Z,118.12
2019-05-02T08:27:23.020Z,118.12
2019-05-02T08:28:20.464Z,140.62
2019-05-02T08:29:23.469Z,146.25
2019-05-02T08:30:21.405Z,135.00
2019-05-02T08:31:21.023Z,146.25
2019-05-02T08:32:20.385Z,129.38
2019-05-02T08:33:20.373Z,129.38
2019-05-02T08:34:20.417Z,151.88
2019-05-02T08:35:20.351Z,196.88
2019-05-02T08:36:20.343Z,196.88
2019-05-02T08:37:20.331Z,202.50
2019-05-02T08:38:20.317Z,191.25
2019-05-02T08:39:20.306Z,208.12
2019-05-02T08:40:20.325Z,225.00
2019-05-02T08:41:21.459Z,230.62
2019-05-02T08:42:20.272Z,264.38
2019-05-02T08:43:20.262Z,292.50
2019-05-02T08:44:20.248Z,354.38
2019-05-02T08:45:20.244Z,495.00
2019-05-02T08:46:20.255Z,506.25
2019-05-02T08:47:23.777Z,506.25
2019-05-02T08:48:22.764Z,337.50
2019-05-02T08:49:20.232Z,444.38
2019-05-02T08:50:20.183Z,466.88
2019-05-02T08:51:20.171Z,545.62
2019-05-02T08:52:20.230Z,371.25
2019-05-02T08:53:22.020Z,315.00
2019-05-02T08:54:20.137Z,421.88
2019-05-02T08:55:20.128Z,517.50
2019-05-02T08:56:21.446Z,450.00
2019-05-02T08:57:20.105Z,292.50
2019-05-02T08:58:20.121Z,331.88
2019-05-02T08:59:24.349Z,309.38
2019-05-02T09:00:20.073Z,354.38
2019-05-02T09:01:20.060Z,545.62
2019-05-02T09:02:21.126Z,286.88
2019-05-02T09:03:21.067Z,534.38
2019-05-02T09:04:24.134Z,528.75
2019-05-02T09:05:21.017Z,534.38
2019-05-02T09:06:22.530Z,517.50
2019-05-02T09:07:20.074Z,528.75
2019-05-02T09:08:19.984Z,483.75
2019-05-02T09:09:22.829Z,528.75
2019-05-02T09:10:20.958Z,528.75
2019-05-02T09:11:19.948Z,540.00
2019-05-02T09:12:20.395Z,534.38
2019-05-02T09:13:26.385Z,523.12
2019-05-02T09:14:21.673Z,523.12
2019-05-02T09:15:19.905Z,523.12
2019-05-02T09:16:21.595Z,523.12
2019-05-02T09:17:33.161Z,523.12
2019-05-02T09:18:22.319Z,528.75
2019-05-02T09:19:21.483Z,540.00
2019-05-02T09:20:23.549Z,455.62
2019-05-02T09:21:21.881Z,483.75
2019-05-02T09:22:19.824Z,303.75
2019-05-02T09:23:19.813Z,500.62
2019-05-02T09:24:23.289Z,540.00
2019-05-02T09:25:21.827Z,264.38
2019-05-02T09:26:33.319Z,517.50
2019-05-02T09:27:22.412Z,500.62
2019-05-02T09:28:22.644Z,511.88
2019-05-02T09:29:22.206Z,534.38
2019-05-02T09:30:22.885Z,590.62
2019-05-02T09:31:22.565Z,292.50
2019-05-02T09:32:24.803Z,219.38
2019-05-02T09:33:22.640Z,241.88
2019-05-02T09:34:22.807Z,528.75
2019-05-02T09:35:22.932Z,506.25
2019-05-02T09:36:19.667Z,540.00
2019-05-02T09:37:19.684Z,573.75
2019-05-02T09:38:19.644Z,545.62
2019-05-02T09:39:19.633Z,540.00
2019-05-02T09:40:19.621Z,551.25
2019-05-02T09:41:20.158Z,562.50
2019-05-02T09:42:21.596Z,596.25
2019-05-02T09:43:19.616Z,635.62
2019-05-02T09:44:19.576Z,703.12
2019-05-02T09:45:19.569Z,838.12
2019-05-02T09:46:19.553Z,838.12
2019-05-02T09:47:19.541Z,810.00
2019-05-02T09:48:22.898Z,748.12
2019-05-02T09:49:22.066Z,720.00
2019-05-02T09:50:26.639Z,810.00
2019-05-02T09:51:21.631Z,855.00
2019-05-02T09:52:19.567Z,911.25
2019-05-02T09:53:21.736Z,945.00
2019-05-02T09:54:22.834Z,911.25
2019-05-02T09:55:19.484Z,900.00
2019-05-02T09:56:19.440Z,922.50
2019-05-02T09:57:19.433Z,905.62
2019-05-02T09:58:21.387Z,348.75
2019-05-02T09:59:27.803Z,1170.00
2019-05-02T10:00:22.134Z,343.12
2019-05-02T10:01:19.385Z,219.38
2019-05-02T10:02:19.375Z,168.75
2019-05-02T10:03:19.363Z,157.50
2019-05-02T10:04:19.352Z,219.38
2019-05-02T10:05:19.343Z,1395.00
2019-05-02T10:06:19.379Z,1496.25
2019-05-02T10:07:19.319Z,1563.75
2019-05-02T10:08:19.305Z,1608.75
2019-05-02T10:09:24.315Z,1546.88
2019-05-02T10:10:21.919Z,1288.12
2019-05-02T10:11:22.492Z,1406.25
2019-05-02T10:12:20.288Z,1541.25
2019-05-02T10:13:19.254Z,1541.25
2019-05-02T10:14:19.240Z,1603.12
2019-05-02T10:15:19.233Z,1591.88
2019-05-02T10:16:23.646Z,1631.25
2019-05-02T10:17:20.216Z,1614.38
2019-05-02T10:18:19.588Z,1288.12
2019-05-02T10:19:19.194Z,883.12
2019-05-02T10:20:25.403Z,478.12
2019-05-02T10:21:20.164Z,1198.12
2019-05-02T10:22:19.154Z,1653.75
2019-05-02T10:23:19.978Z,1738.12
2019-05-02T10:24:19.170Z,1738.12
2019-05-02T10:25:19.122Z,495.00
2019-05-02T10:26:20.169Z,376.88
2019-05-02T10:27:19.102Z,281.25
2019-05-02T10:28:19.090Z,264.38
2019-05-02T10:29:22.802Z,1811.25
2019-05-02T10:30:21.672Z,1811.25
2019-05-02T10:31:19.055Z,1895.62
2019-05-02T10:32:19.044Z,1906.88
2019-05-02T10:33:19.035Z,1968.75
2019-05-02T10:34:19.114Z,781.88
2019-05-02T10:35:19.011Z,1963.12
2019-05-02T10:36:19.890Z,1946.25
2019-05-02T10:37:18.991Z,2064.38
2019-05-02T10:38:19.515Z,2047.50
2019-05-02T10:39:18.974Z,1957.50
2019-05-02T10:40:18.960Z,1912.50
2019-05-02T10:41:18.946Z,1822.50
2019-05-02T10:42:18.964Z,978.75
2019-05-02T10:43:18.926Z,292.50
2019-05-02T10:44:18.915Z,461.25
2019-05-02T10:45:18.909Z,1985.62
2019-05-02T10:46:18.893Z,2013.75
2019-05-02T10:47:18.884Z,1890.00
2019-05-02T10:48:25.904Z,2109.38
2019-05-02T10:49:19.868Z,2137.50
2019-05-02T10:50:18.853Z,2221.88
2019-05-02T10:51:18.848Z,2283.75
2019-05-02T10:52:21.576Z,2193.75
2019-05-02T10:53:21.784Z,2182.50
2019-05-02T10:54:20.603Z,2396.25
2019-05-02T10:55:21.675Z,2306.25
2019-05-02T10:56:18.789Z,2244.38
2019-05-02T10:57:18.775Z,2081.25
2019-05-02T10:58:18.765Z,1783.12
2019-05-02T10:59:18.782Z,455.62
2019-05-02T11:00:18.742Z,776.25
2019-05-02T11:01:18.737Z,253.12
2019-05-02T11:02:18.721Z,213.75
2019-05-02T11:03:18.711Z,225.00
2019-05-02T11:04:18.700Z,2446.88
2019-05-02T11:05:22.532Z,2418.75
2019-05-02T11:06:22.096Z,2261.25
2019-05-02T11:07:22.782Z,1698.75
2019-05-02T11:08:19.656Z,2216.25
2019-05-02T11:09:22.561Z,1344.38
2019-05-02T11:10:21.684Z,2446.88
2019-05-02T11:11:18.624Z,2677.50
2019-05-02T11:12:24.339Z,2626.88
2019-05-02T11:13:21.698Z,2559.38
2019-05-02T11:14:18.598Z,2452.50
2019-05-02T11:15:18.585Z,2480.62
2019-05-02T11:16:18.601Z,247.50
2019-05-02T11:17:18.618Z,236.25
2019-05-02T11:18:18.550Z,292.50
2019-05-02T11:19:18.540Z,2486.25
2019-05-02T11:20:18.533Z,2671.88
2019-05-02T11:21:18.901Z,2598.75
2019-05-02T11:22:18.534Z,2677.50
2019-05-02T11:23:18.508Z,2784.38
2019-05-02T11:24:18.484Z,2930.62
2019-05-02T11:25:18.477Z,2947.50
2019-05-02T11:26:22.562Z,2896.88
2019-05-02T11:27:19.480Z,2891.25
2019-05-02T11:28:18.446Z,427.50
2019-05-02T11:29:18.433Z,174.38
2019-05-02T11:30:22.299Z,196.88
2019-05-02T11:31:19.411Z,1231.88
2019-05-02T11:32:18.410Z,2835.00
2019-05-02T11:33:18.441Z,455.62
2019-05-02T11:34:18.433Z,3071.25
2019-05-02T11:35:18.391Z,2401.88
2019-05-02T11:36:18.358Z,2846.25
2019-05-02T11:37:18.346Z,2964.38
2019-05-02T11:38:44.382Z,2975.62
2019-05-02T11:39:27.710Z,3082.50
2019-05-02T11:40:19.314Z,2953.12
2019-05-02T11:41:18.303Z,2435.62
2019-05-02T11:42:25.649Z,1777.50
2019-05-02T11:43:19.285Z,1170.00
2019-05-02T11:44:18.272Z,607.50
2019-05-02T11:45:18.290Z,630.00
2019-05-02T11:46:18.251Z,573.75
2019-05-02T11:47:24.913Z,236.25
2019-05-02T11:48:19.852Z,450.00
2019-05-02T11:49:18.222Z,455.62
2019-05-02T11:50:18.209Z,534.38
2019-05-02T11:51:18.227Z,495.00
2019-05-02T11:52:18.190Z,534.38
2019-05-02T11:53:29.143Z,213.75
2019-05-02T11:54:19.165Z,483.75
2019-05-02T11:55:18.924Z,472.50
2019-05-02T11:56:19.174Z,466.88
2019-05-02T11:57:21.085Z,483.75
2019-05-02T11:58:19.122Z,376.88
2019-05-02T11:59:22.726Z,286.88
2019-05-02T12:00:19.102Z,433.12
2019-05-02T12:01:20.226Z,281.25
2019-05-02T12:02:19.161Z,213.75
2019-05-02T12:03:18.069Z,196.88
2019-05-02T12:04:18.057Z,123.75
2019-05-02T12:05:18.048Z,101.25
2019-05-02T12:06:19.782Z,106.88
2019-05-02T12:07:18.025Z,129.38
2019-05-02T12:08:18.041Z,163.12
2019-05-02T12:09:18.002Z,168.75
2019-05-02T12:10:17.993Z,185.62
2019-05-02T12:11:17.988Z,376.88
2019-05-02T12:12:17.970Z,247.50
2019-05-02T12:13:17.960Z,264.38
2019-05-02T12:14:17.974Z,230.62
2019-05-02T12:15:17.936Z,247.50
2019-05-02T12:16:17.925Z,270.00
2019-05-02T12:17:17.916Z,348.75
2019-05-02T12:18:20.497Z,230.62
2019-05-02T12:19:17.892Z,472.50
2019-05-02T12:20:17.915Z,236.25
2019-05-02T12:21:17.870Z,410.62
2019-05-02T12:22:17.861Z,433.12
2019-05-02T12:23:17.855Z,185.62
2019-05-02T12:24:17.840Z,157.50
2019-05-02T12:25:17.829Z,382.50
2019-05-02T12:26:17.845Z,427.50
2019-05-02T12:27:17.806Z,466.88
2019-05-02T12:28:17.799Z,180.00
2019-05-02T12:29:17.783Z,438.75
2019-05-02T12:30:17.771Z,444.38
2019-05-02T12:31:17.766Z,219.38
2019-05-02T12:32:17.784Z,450.00
2019-05-02T12:33:17.752Z,343.12
2019-05-02T12:34:17.735Z,140.62
2019-05-02T12:35:17.716Z,151.88
2019-05-02T12:36:17.706Z,163.12
2019-05-02T12:37:17.695Z,421.88
2019-05-02T12:38:17.701Z,405.00
2019-05-02T12:39:17.676Z,382.50
2019-05-02T12:40:17.666Z,376.88
2019-05-02T12:41:21.960Z,382.50
2019-05-02T12:42:18.932Z,382.50
2019-05-02T12:43:17.626Z,196.88
2019-05-02T12:44:17.617Z,196.88
2019-05-02T12:45:17.610Z,264.38